createdAt,value
2017-04-17T00:00:17.699Z,8.48
2017-04-17T00:01:17.330Z,10.02
2017-04-17T00:02:16.919Z,9.53
2017-04-17T00:03:16.500Z,9.17
2017-04-17T00:04:16.089Z,9.30
2017-04-17T00:05:15.629Z,11.85
2017-04-17T00:06:15.658Z,10.52
2017-04-17T00:07:15.504Z,9.65
2017-04-17T00:08:15.096Z,12.95
2017-04-17T00:09:14.642Z,9.12
2017-04-17T00:10:14.219Z,9.12
2017-04-17T00:11:13.836Z,9.25
2017-04-17T00:12:13.402Z,11.53
2017-04-17T00:13:13.068Z,11.13
2017-04-17T00:14:12.699Z,9.37
2017-04-17T00:15:12.590Z,9.03
2017-04-17T00:16:12.897Z,10.25
2017-04-17T00:17:12.431Z,10.12
2017-04-17T00:18:12.337Z,9.40
2017-04-17T00:19:12.059Z,9.12
2017-04-17T00:20:11.624Z,9.70
2017-04-17T00:21:11.207Z,11.38
2017-04-17T00:22:10.741Z,9.93
2017-04-17T00:23:10.709Z,9.58
2017-04-17T00:24:10.279Z,10.27
2017-04-17T00:25:09.847Z,11.08
2017-04-17T00:26:09.486Z,10.45
2017-04-17T00:27:09.046Z,11.38
2017-04-17T00:28:09.017Z,10.60
2017-04-17T00:29:08.651Z,13.97
2017-04-17T00:30:08.219Z,10.12
2017-04-17T00:31:07.979Z,11.90
2017-04-17T00:32:07.682Z,9.45
2017-04-17T00:33:07.225Z,10.12
2017-04-17T00:34:07.036Z,14.23
2017-04-17T00:35:06.595Z,12.90
2017-04-17T00:36:06.182Z,13.23
2017-04-17T00:37:05.763Z,10.67
2017-04-17T00:38:05.422Z,11.52
2017-04-17T00:39:05.158Z,9.47
2017-04-17T00:40:04.703Z,15.32
2017-04-17T00:41:04.567Z,10.32
2017-04-17T00:42:04.115Z,12.12
2017-04-17T00:43:03.664Z,10.08
2017-04-17T00:44:03.248Z,10.42
2017-04-17T00:45:03.530Z,9.90
2017-04-17T00:46:03.147Z,10.65
2017-04-17T00:47:02.748Z,12.80
2017-04-17T00:48:02.278Z,10.45
2017-04-17T00:49:01.830Z,10.68
2017-04-17T00:50:01.505Z,16.18
2017-04-17T00:51:01.035Z,9.38
2017-04-17T00:52:01.332Z,11.10
2017-04-17T00:53:00.881Z,9.85
2017-04-17T00:54:00.594Z,11.87
2017-04-17T00:55:00.162Z,11.08
2017-04-17T00:55:59.835Z,14.92
2017-04-17T00:57:00.337Z,11.87
2017-04-17T00:57:59.980Z,11.10
2017-04-17T00:59:00.448Z,12.03
2017-04-17T01:00:00.247Z,10.80
2017-04-17T01:01:00.252Z,9.43
2017-04-17T01:02:00.167Z,11.02
2017-04-17T01:02:59.807Z,12.55
2017-04-17T01:04:00.170Z,13.12
2017-04-17T01:04:59.798Z,10.92
2017-04-17T01:05:59.310Z,10.73
2017-04-17T01:06:59.591Z,11.15
2017-04-17T01:07:59.156Z,9.60
2017-04-17T01:08:58.785Z,12.12
2017-04-17T01:09:58.387Z,11.87
2017-04-17T01:10:57.915Z,11.53
2017-04-17T01:11:58.319Z,11.67
2017-04-17T01:12:57.857Z,11.83
2017-04-17T01:13:57.468Z,9.77
2017-04-17T01:14:57.074Z,11.83
2017-04-17T01:15:56.623Z,11.67
2017-04-17T01:16:56.182Z,13.43
2017-04-17T01:17:55.743Z,11.92
2017-04-17T01:18:55.304Z,10.47
2017-04-17T01:19:55.574Z,11.02
2017-04-17T01:20:55.511Z,15.77
2017-04-17T01:21:55.064Z,11.35
2017-04-17T01:22:54.691Z,12.03
2017-04-17T01:23:54.252Z,11.80
2017-04-17T01:24:53.871Z,9.12
2017-04-17T01:25:53.463Z,9.28
2017-04-17T01:26:53.379Z,11.87
2017-04-17T01:27:52.930Z,12.37
2017-04-17T01:28:52.503Z,11.37
2017-04-17T01:29:52.135Z,15.23
2017-04-17T01:30:51.793Z,11.00
2017-04-17T01:31:51.378Z,11.45
2017-04-17T01:32:50.923Z,11.67
2017-04-17T01:33:51.016Z,11.92
2017-04-17T01:34:51.323Z,10.85
2017-04-17T01:35:50.851Z,10.77
2017-04-17T01:36:50.498Z,13.22
2017-04-17T01:37:50.035Z,12.50
2017-04-17T01:38:49.687Z,11.42
2017-04-17T01:39:49.249Z,10.75
2017-04-17T01:40:49.159Z,9.97
2017-04-17T01:41:48.702Z,10.70
2017-04-17T01:42:48.266Z,9.97
2017-04-17T01:43:48.291Z,10.45
2017-04-17T01:44:47.831Z,10.50
2017-04-17T01:45:47.560Z,11.45
2017-04-17T01:46:47.262Z,11.48
2017-04-17T01:47:46.824Z,12.82
2017-04-17T01:48:46.811Z,11.88
2017-04-17T01:49:46.416Z,13.35
2017-04-17T01:50:46.063Z,11.63
2017-04-17T01:51:45.760Z,12.78
2017-04-17T01:52:45.319Z,12.03
2017-04-17T01:53:45.760Z,12.30
2017-04-17T01:54:45.347Z,11.88
2017-04-17T01:55:45.279Z,11.42
2017-04-17T01:56:44.911Z,16.02
2017-04-17T01:57:44.467Z,10.62
2017-04-17T01:58:44.019Z,10.85
2017-04-17T01:59:43.727Z,12.82
2017-04-17T02:00:44.062Z,13.92
2017-04-17T02:01:43.666Z,12.05
2017-04-17T02:02:43.224Z,11.47
2017-04-17T02:03:42.775Z,12.75
2017-04-17T02:04:42.546Z,12.43
2017-04-17T02:05:42.855Z,11.20
2017-04-17T02:06:43.166Z,12.10
2017-04-17T02:07:43.494Z,11.58
2017-04-17T02:08:43.052Z,12.42
2017-04-17T02:09:42.588Z,11.50
2017-04-17T02:10:42.179Z,14.53
2017-04-17T02:11:42.853Z,12.13
2017-04-17T02:12:42.442Z,12.75
2017-04-17T02:13:41.995Z,12.42
2017-04-17T02:14:42.352Z,13.92
2017-04-17T02:15:41.935Z,13.58
2017-04-17T02:16:42.899Z,11.15
2017-04-17T02:17:42.486Z,11.40
2017-04-17T02:18:42.200Z,11.87
2017-04-17T02:19:41.747Z,13.88
2017-04-17T02:20:41.338Z,13.58
2017-04-17T02:21:41.060Z,12.90
2017-04-17T02:22:41.355Z,13.38
2017-04-17T02:23:40.956Z,12.93
2017-04-17T02:24:40.491Z,14.57
2017-04-17T02:25:40.087Z,11.17
2017-04-17T02:26:39.807Z,11.85
2017-04-17T02:27:39.352Z,12.52
2017-04-17T02:28:38.895Z,13.75
2017-04-17T02:29:38.804Z,11.67
2017-04-17T02:30:38.410Z,13.23
2017-04-17T02:31:38.144Z,15.28
2017-04-17T02:32:37.719Z,11.63
2017-04-17T02:33:37.247Z,16.15
2017-04-17T02:34:36.807Z,13.17
2017-04-17T02:35:36.542Z,13.37
2017-04-17T02:36:36.087Z,12.68
2017-04-17T02:37:35.686Z,11.88
2017-04-17T02:38:35.234Z,11.65
2017-04-17T02:39:34.811Z,11.78
2017-04-17T02:40:35.071Z,10.98
2017-04-17T02:41:34.606Z,12.90
2017-04-17T02:42:34.949Z,10.70
2017-04-17T02:43:34.483Z,11.78
2017-04-17T02:44:34.615Z,11.02
2017-04-17T02:45:34.142Z,12.95
2017-04-17T02:46:33.811Z,11.53
2017-04-17T02:47:33.403Z,13.33
2017-04-17T02:48:32.965Z,13.37
2017-04-17T02:49:32.532Z,11.10
2017-04-17T02:50:32.880Z,11.25
2017-04-17T02:51:32.411Z,11.25
2017-04-17T02:52:31.947Z,11.40
2017-04-17T02:53:32.370Z,11.65
2017-04-17T02:54:32.742Z,11.07
2017-04-17T02:55:32.292Z,10.43
2017-04-17T02:56:31.830Z,10.97
2017-04-17T02:57:31.375Z,13.62
2017-04-17T02:58:31.013Z,10.97
2017-04-17T02:59:30.595Z,12.32
2017-04-17T03:00:30.135Z,12.07
2017-04-17T03:01:30.214Z,11.20
2017-04-17T03:02:29.739Z,11.22
2017-04-17T03:03:29.300Z,12.87
2017-04-17T03:04:28.919Z,12.93
2017-04-17T03:05:28.828Z,10.68
2017-04-17T03:06:28.359Z,11.13
2017-04-17T03:07:28.631Z,10.62
2017-04-17T03:08:28.235Z,15.18
2017-04-17T03:09:27.865Z,10.90
2017-04-17T03:10:28.359Z,12.38
2017-04-17T03:11:27.882Z,9.52
2017-04-17T03:12:28.855Z,12.80
2017-04-17T03:13:28.407Z,9.53
2017-04-17T03:14:28.812Z,12.00
2017-04-17T03:15:29.062Z,10.02
2017-04-17T03:16:28.623Z,11.97
2017-04-17T03:17:28.908Z,10.17
2017-04-17T03:18:28.466Z,10.68
2017-04-17T03:19:28.186Z,10.17
2017-04-17T03:20:27.723Z,10.10
2017-04-17T03:21:27.291Z,14.10
2017-04-17T03:22:26.807Z,9.12
2017-04-17T03:23:26.551Z,9.70
2017-04-17T03:24:26.083Z,11.73
2017-04-17T03:25:25.814Z,9.53
2017-04-17T03:26:25.780Z,11.58
2017-04-17T03:27:25.342Z,10.63
2017-04-17T03:28:25.651Z,10.17
2017-04-17T03:29:25.932Z,10.15
2017-04-17T03:30:25.498Z,10.15
2017-04-17T03:31:25.087Z,9.40
2017-04-17T03:32:24.621Z,9.05
2017-04-17T03:33:24.171Z,10.33
2017-04-17T03:34:23.715Z,10.50
2017-04-17T03:35:23.299Z,10.77
2017-04-17T03:36:22.846Z,10.67
2017-04-17T03:37:23.120Z,9.87
2017-04-17T03:38:22.804Z,10.15
2017-04-17T03:39:22.356Z,10.53
2017-04-17T03:40:22.598Z,9.93
2017-04-17T03:41:22.999Z,11.42
2017-04-17T03:42:22.738Z,9.72
2017-04-17T03:43:22.292Z,11.27
2017-04-17T03:44:21.815Z,11.28
2017-04-17T03:45:21.363Z,12.00
2017-04-17T03:46:21.084Z,10.32
2017-04-17T03:47:20.631Z,11.55
2017-04-17T03:48:20.171Z,12.20
2017-04-17T03:49:19.796Z,9.63
2017-04-17T03:50:19.355Z,10.67
2017-04-17T03:51:18.915Z,11.53
2017-04-17T03:52:18.463Z,10.97
2017-04-17T03:53:18.194Z,10.95
2017-04-17T03:54:17.718Z,7.90
2017-04-17T03:55:17.252Z,10.82
2017-04-17T03:56:17.503Z,10.55
2017-04-17T03:57:17.095Z,13.73
2017-04-17T03:58:16.647Z,10.93
2017-04-17T03:59:16.186Z,11.60
2017-04-17T04:00:15.843Z,11.18
2017-04-17T04:01:15.384Z,8.53
2017-04-17T04:02:14.926Z,10.72
2017-04-17T04:03:14.503Z,10.32
2017-04-17T04:04:14.081Z,10.18
2017-04-17T04:05:13.575Z,9.85
2017-04-17T04:06:13.114Z,9.80
2017-04-17T04:07:13.071Z,9.48
2017-04-17T04:08:12.595Z,9.75
2017-04-17T04:09:12.143Z,10.27
2017-04-17T04:10:10.927Z,10.67
2017-04-17T04:11:10.464Z,10.92
2017-04-17T04:12:10.175Z,10.50
2017-04-17T04:13:09.716Z,10.23
2017-04-17T04:14:09.824Z,10.33
2017-04-17T04:15:09.662Z,11.73
2017-04-17T04:16:09.191Z,12.23
2017-04-17T04:17:10.115Z,12.45
2017-04-17T04:18:09.916Z,10.72
2017-04-17T04:19:09.535Z,12.35
2017-04-17T04:20:09.095Z,9.63
2017-04-17T04:21:08.624Z,11.93
2017-04-17T04:22:08.942Z,12.73
2017-04-17T04:23:09.235Z,10.78
2017-04-17T04:24:08.887Z,10.42
2017-04-17T04:25:08.463Z,11.80
2017-04-17T04:26:08.947Z,10.82
2017-04-17T04:27:08.479Z,12.17
2017-04-17T04:28:08.019Z,11.73
2017-04-17T04:29:08.434Z,12.10
2017-04-17T04:30:07.992Z,12.02
2017-04-17T04:31:08.339Z,11.42
2017-04-17T04:32:07.900Z,12.88
2017-04-17T04:33:08.297Z,12.73
2017-04-17T04:34:07.870Z,14.67
2017-04-17T04:35:08.126Z,13.47
2017-04-17T04:36:08.600Z,13.88
2017-04-17T04:37:08.183Z,13.17
2017-04-17T04:38:07.748Z,12.23
2017-04-17T04:39:07.292Z,12.25
2017-04-17T04:40:06.870Z,13.47
2017-04-17T04:41:06.653Z,13.20
2017-04-17T04:42:06.758Z,11.73
2017-04-17T04:43:06.310Z,12.58
2017-04-17T04:44:06.092Z,12.35
2017-04-17T04:45:05.770Z,12.43
2017-04-17T04:46:05.316Z,12.37
2017-04-17T04:47:05.581Z,12.77
2017-04-17T04:48:05.559Z,11.50
2017-04-17T04:49:05.191Z,14.77
2017-04-17T04:50:04.759Z,12.30
2017-04-17T04:51:04.423Z,12.80
2017-04-17T04:52:03.998Z,12.33
2017-04-17T04:53:03.677Z,12.60
2017-04-17T04:54:03.273Z,12.08
2017-04-17T04:55:02.895Z,12.10
2017-04-17T04:56:02.438Z,15.55
2017-04-17T04:57:03.107Z,14.53
2017-04-17T04:58:02.665Z,10.68
2017-04-17T04:59:02.372Z,14.62
2017-04-17T05:00:01.919Z,13.80
2017-04-17T05:01:01.493Z,13.40
2017-04-17T05:02:01.451Z,13.18
2017-04-17T05:03:01.747Z,12.57
2017-04-17T05:04:01.323Z,11.68
2017-04-17T05:05:00.871Z,14.52
2017-04-17T05:06:00.419Z,12.45
2017-04-17T05:06:59.979Z,12.47
2017-04-17T05:07:59.751Z,12.72
2017-04-17T05:09:00.099Z,12.92
2017-04-17T05:09:59.745Z,12.65
2017-04-17T05:10:59.335Z,15.18
2017-04-17T05:11:58.957Z,15.38
2017-04-17T05:12:58.555Z,15.40
2017-04-17T05:13:58.111Z,15.00
2017-04-17T05:14:58.494Z,13.20
2017-04-17T05:15:58.063Z,13.43
2017-04-17T05:16:57.591Z,13.58
2017-04-17T05:17:57.199Z,13.35
2017-04-17T05:18:56.730Z,12.75
2017-04-17T05:19:56.396Z,13.58
2017-04-17T05:20:55.956Z,13.72
2017-04-17T05:21:56.279Z,13.02
2017-04-17T05:22:56.595Z,13.45
2017-04-17T05:23:56.887Z,12.70
2017-04-17T05:24:56.560Z,13.50
2017-04-17T05:25:56.161Z,17.52
2017-04-17T05:26:55.999Z,13.08
2017-04-17T05:27:56.411Z,13.28
2017-04-17T05:28:56.099Z,12.98
2017-04-17T05:29:55.675Z,12.50
2017-04-17T05:30:55.214Z,12.60
2017-04-17T05:31:55.673Z,12.92
2017-04-17T05:32:55.227Z,13.10
2017-04-17T05:33:55.748Z,13.22
2017-04-17T05:34:55.427Z,12.20
2017-04-17T05:35:55.007Z,13.03
2017-04-17T05:36:54.862Z,13.27
2017-04-17T05:37:55.153Z,13.85
2017-04-17T05:38:54.970Z,14.90
2017-04-17T05:39:55.272Z,12.62
2017-04-17T05:40:54.807Z,11.95
2017-04-17T05:41:54.603Z,12.52
2017-04-17T05:42:54.303Z,12.43
2017-04-17T05:43:53.818Z,12.40
2017-04-17T05:44:53.431Z,13.80
2017-04-17T05:45:52.979Z,13.23
2017-04-17T05:46:53.288Z,12.82
2017-04-17T05:47:53.676Z,12.13
2017-04-17T05:48:53.223Z,12.48
2017-04-17T05:49:52.817Z,15.70
2017-04-17T05:50:52.359Z,11.43
2017-04-17T05:51:51.906Z,13.47
2017-04-17T05:52:51.488Z,15.38
2017-04-17T05:53:51.776Z,14.17
2017-04-17T05:54:51.316Z,14.20
2017-04-17T05:55:50.942Z,13.22
2017-04-17T05:56:50.506Z,13.28
2017-04-17T05:57:50.046Z,12.55
2017-04-17T05:58:49.615Z,12.45
2017-04-17T05:59:49.311Z,11.85
2017-04-17T06:00:48.862Z,12.33
2017-04-17T06:01:48.498Z,12.78
2017-04-17T06:02:48.169Z,14.05
2017-04-17T06:03:47.887Z,11.70
2017-04-17T06:04:47.447Z,15.27
2017-04-17T06:05:47.024Z,11.62
2017-04-17T06:06:46.555Z,13.05
2017-04-17T06:07:46.424Z,11.68
2017-04-17T06:08:46.083Z,10.72
2017-04-17T06:09:45.619Z,12.53
2017-04-17T06:10:45.171Z,11.13
2017-04-17T06:11:45.466Z,13.20
2017-04-17T06:12:45.026Z,11.75
2017-04-17T06:13:44.568Z,11.13
2017-04-17T06:14:44.127Z,12.57
2017-04-17T06:15:43.827Z,12.33
2017-04-17T06:16:43.523Z,17.08
2017-04-17T06:17:43.124Z,11.02
2017-04-17T06:18:42.667Z,11.70
2017-04-17T06:19:42.220Z,13.27
2017-04-17T06:20:41.772Z,11.27
2017-04-17T06:21:41.331Z,11.40
2017-04-17T06:22:40.941Z,10.57
2017-04-17T06:23:40.531Z,11.35
2017-04-17T06:24:40.258Z,13.40
2017-04-17T06:25:40.726Z,12.48
2017-04-17T06:26:40.254Z,10.05
2017-04-17T06:27:39.846Z,11.33
2017-04-17T06:28:39.823Z,12.32
2017-04-17T06:29:39.446Z,11.52
2017-04-17T06:30:39.013Z,10.78
2017-04-17T06:31:38.606Z,11.15
2017-04-17T06:32:38.183Z,14.87
2017-04-17T06:33:37.000Z,12.00
2017-04-17T06:34:36.632Z,12.38
2017-04-17T06:35:36.243Z,12.48
2017-04-17T06:36:36.552Z,12.68
2017-04-17T06:37:36.848Z,11.98
2017-04-17T06:38:36.456Z,12.28
2017-04-17T06:39:35.992Z,13.52
2017-04-17T06:40:35.602Z,15.58
2017-04-17T06:41:35.282Z,11.98
2017-04-17T06:42:34.903Z,11.75
2017-04-17T06:43:34.531Z,14.20
2017-04-17T06:44:34.080Z,13.88
2017-04-17T06:45:34.164Z,13.65
2017-04-17T06:46:33.707Z,11.35
2017-04-17T06:47:33.258Z,15.20
2017-04-17T06:48:33.568Z,12.40
2017-04-17T06:49:33.407Z,11.48
2017-04-17T06:50:32.951Z,12.32
2017-04-17T06:51:32.550Z,11.78
2017-04-17T06:52:32.159Z,13.77
2017-04-17T06:53:31.734Z,11.83
2017-04-17T06:54:31.294Z,13.67
2017-04-17T06:55:30.840Z,13.63
2017-04-17T06:56:30.527Z,15.90
2017-04-17T06:57:30.087Z,14.38
2017-04-17T06:58:29.847Z,13.95
2017-04-17T06:59:29.395Z,12.98
2017-04-17T07:00:29.010Z,12.10
2017-04-17T07:01:28.772Z,13.53
2017-04-17T07:02:28.905Z,13.93
2017-04-17T07:03:28.484Z,13.18
2017-04-17T07:04:28.140Z,14.25
2017-04-17T07:05:27.741Z,11.77
2017-04-17T07:06:28.163Z,11.47
2017-04-17T07:07:27.764Z,10.85
2017-04-17T07:08:27.287Z,12.82
2017-04-17T07:09:26.947Z,11.35
2017-04-17T07:10:26.507Z,10.88
2017-04-17T07:11:26.079Z,10.62
2017-04-17T07:12:26.047Z,11.45
2017-04-17T07:13:25.575Z,10.42
2017-04-17T07:14:25.136Z,10.12
2017-04-17T07:15:24.884Z,9.45
2017-04-17T07:16:24.635Z,9.10
2017-04-17T07:17:24.343Z,12.23
2017-04-17T07:18:23.872Z,9.75
2017-04-17T07:19:24.158Z,10.93
2017-04-17T07:20:23.741Z,9.25
2017-04-17T07:21:23.307Z,11.17
2017-04-17T07:22:22.920Z,9.45
2017-04-17T07:23:22.469Z,12.52
2017-04-17T07:24:21.997Z,8.95
2017-04-17T07:25:21.590Z,9.37
2017-04-17T07:26:21.206Z,8.73
2017-04-17T07:27:20.795Z,10.62
2017-04-17T07:28:20.538Z,9.48
2017-04-17T07:29:20.099Z,10.03
2017-04-17T07:30:19.662Z,9.32
2017-04-17T07:31:20.008Z,8.77
2017-04-17T07:32:19.696Z,9.95
2017-04-17T07:33:19.251Z,10.22
2017-04-17T07:34:18.811Z,10.42
2017-04-17T07:35:18.358Z,10.40
2017-04-17T07:36:17.887Z,9.33
2017-04-17T07:37:17.535Z,8.63
2017-04-17T07:38:17.090Z,10.35
2017-04-17T07:39:18.065Z,8.80
2017-04-17T07:40:17.661Z,10.78
2017-04-17T07:41:17.216Z,8.90
2017-04-17T07:42:16.740Z,8.45
2017-04-17T07:43:16.583Z,9.00
2017-04-17T07:44:16.964Z,9.70
2017-04-17T07:45:16.548Z,9.48
2017-04-17T07:46:16.257Z,9.28
2017-04-17T07:47:15.822Z,9.40
2017-04-17T07:48:15.400Z,10.87
2017-04-17T07:49:15.007Z,8.20
2017-04-17T07:50:14.681Z,11.83
2017-04-17T07:51:14.463Z,7.73
2017-04-17T07:52:14.360Z,8.55
2017-04-17T07:53:14.019Z,8.42
2017-04-17T07:54:13.571Z,10.08
2017-04-17T07:55:13.172Z,9.03
2017-04-17T07:56:12.715Z,7.78
2017-04-17T07:57:12.345Z,10.97
2017-04-17T07:58:11.871Z,8.15
2017-04-17T07:59:12.126Z,10.05
2017-04-17T08:00:11.643Z,9.03
2017-04-17T08:01:11.331Z,8.10
2017-04-17T08:02:10.856Z,9.15
2017-04-17T08:03:10.387Z,7.88
2017-04-17T08:04:10.675Z,7.72
2017-04-17T08:05:10.534Z,7.05
2017-04-17T08:06:10.511Z,7.38
2017-04-17T08:07:10.060Z,6.63
2017-04-17T08:08:09.599Z,6.82
2017-04-17T08:09:09.135Z,6.35
2017-04-17T08:10:08.723Z,6.57
2017-04-17T08:11:08.368Z,7.00
2017-04-17T08:12:08.048Z,7.90
2017-04-17T08:13:07.742Z,6.12
2017-04-17T08:14:07.288Z,6.75
2017-04-17T08:15:06.847Z,6.43
2017-04-17T08:16:06.411Z,6.85
2017-04-17T08:17:06.289Z,5.97
2017-04-17T08:18:06.601Z,6.18
2017-04-17T08:19:06.891Z,7.93
2017-04-17T08:20:06.441Z,6.40
2017-04-17T08:21:06.011Z,7.05
2017-04-17T08:22:06.323Z,6.25
2017-04-17T08:23:06.807Z,6.50
2017-04-17T08:24:06.404Z,6.80
2017-04-17T08:25:05.943Z,9.07
2017-04-17T08:26:05.516Z,5.85
2017-04-17T08:27:05.058Z,6.93
2017-04-17T08:28:04.607Z,6.40
2017-04-17T08:29:04.479Z,6.30
2017-04-17T08:30:04.887Z,7.33
2017-04-17T08:31:04.895Z,6.15
2017-04-17T08:32:04.414Z,7.22
2017-04-17T08:33:03.954Z,6.32
2017-04-17T08:34:04.257Z,6.77
2017-04-17T08:35:04.230Z,7.55
2017-04-17T08:36:03.812Z,5.75
2017-04-17T08:37:03.455Z,5.52
2017-04-17T08:38:02.978Z,8.37
2017-04-17T08:39:02.537Z,5.75
2017-04-17T08:40:02.107Z,6.82
2017-04-17T08:41:01.639Z,6.20
2017-04-17T08:42:01.223Z,5.78
2017-04-17T08:43:00.764Z,6.05
2017-04-17T08:44:00.327Z,5.67
2017-04-17T08:44:59.856Z,8.10
2017-04-17T08:45:59.394Z,7.60
2017-04-17T08:46:58.959Z,5.30
2017-04-17T08:47:59.419Z,7.45
2017-04-17T08:48:58.984Z,5.25
2017-04-17T08:49:58.628Z,6.32
2017-04-17T08:50:58.327Z,6.82
2017-04-17T08:51:57.868Z,6.48
2017-04-17T08:52:58.776Z,6.93
2017-04-17T08:53:59.829Z,8.52
2017-04-17T08:55:00.995Z,8.45
2017-04-17T08:56:02.859Z,7.93
2017-04-17T08:57:03.946Z,10.63
2017-04-17T08:58:04.917Z,8.70
2017-04-17T08:59:06.078Z,10.02
2017-04-17T09:00:08.185Z,8.28
2017-04-17T09:01:09.449Z,10.87
2017-04-17T09:02:10.321Z,7.92
2017-04-17T09:03:11.418Z,14.25
2017-04-17T09:04:12.574Z,6.87
2017-04-17T09:05:13.767Z,7.15
2017-04-17T09:06:14.822Z,7.18
2017-04-17T09:07:16.490Z,7.05
2017-04-17T09:08:17.315Z,8.93
2017-04-17T09:09:19.385Z,7.12
2017-04-17T09:10:20.732Z,7.68
2017-04-17T09:11:21.897Z,8.07
2017-04-17T09:12:22.743Z,7.60
2017-04-17T09:13:23.846Z,6.40
2017-04-17T09:14:24.835Z,7.33
2017-04-17T09:15:26.113Z,9.02
2017-04-17T09:16:27.007Z,7.15
2017-04-17T09:17:28.231Z,7.37
2017-04-17T09:18:29.178Z,6.72
2017-04-17T09:19:29.813Z,7.47
2017-04-17T09:20:30.896Z,7.95
2017-04-17T09:21:31.813Z,8.75
2017-04-17T09:22:32.832Z,8.27
2017-04-17T09:23:34.419Z,8.93
2017-04-17T09:24:35.357Z,9.85
2017-04-17T09:25:36.398Z,7.97
2017-04-17T09:26:37.808Z,7.85
2017-04-17T09:27:38.711Z,8.45
2017-04-17T09:28:39.881Z,7.05
2017-04-17T09:29:40.715Z,6.75
2017-04-17T09:30:42.238Z,7.17
2017-04-17T09:31:42.842Z,8.67
2017-04-17T09:32:44.075Z,13.15
2017-04-17T09:33:45.124Z,7.97
2017-04-17T09:34:46.631Z,6.78
2017-04-17T09:35:47.474Z,8.72
2017-04-17T09:36:48.431Z,8.10
2017-04-17T09:37:49.367Z,7.25
2017-04-17T09:38:50.451Z,9.13
2017-04-17T09:39:51.132Z,7.40
2017-04-17T09:40:52.236Z,6.90
2017-04-17T09:41:53.251Z,10.18
2017-04-17T09:42:52.902Z,9.12
2017-04-17T09:43:52.443Z,7.13
2017-04-17T09:44:52.046Z,6.67
2017-04-17T09:45:51.721Z,9.08
2017-04-17T09:46:51.351Z,8.23
2017-04-17T09:47:50.924Z,7.57
2017-04-17T09:48:50.847Z,10.08
2017-04-17T09:49:50.463Z,10.83
2017-04-17T09:50:50.054Z,8.98
2017-04-17T09:51:49.637Z,9.63
2017-04-17T09:52:49.209Z,9.35
2017-04-17T09:53:48.942Z,12.00
2017-04-17T09:54:48.471Z,10.30
2017-04-17T09:55:48.012Z,7.28
2017-04-17T09:56:47.641Z,8.40
2017-04-17T09:57:47.217Z,6.80
2017-04-17T09:58:46.789Z,7.12
2017-04-17T09:59:46.374Z,9.02
2017-04-17T10:00:46.041Z,8.75
2017-04-17T10:01:45.572Z,7.75
2017-04-17T10:02:45.111Z,7.82
2017-04-17T10:03:44.617Z,8.08
2017-04-17T10:04:44.697Z,8.65
2017-04-17T10:05:45.875Z,6.77
2017-04-17T10:06:46.652Z,7.68
2017-04-17T10:07:47.897Z,6.72
2017-04-17T10:08:48.627Z,14.43
2017-04-17T10:09:49.373Z,8.67
2017-04-17T10:10:50.510Z,7.15
2017-04-17T10:11:51.003Z,7.23
2017-04-17T10:12:50.912Z,7.28
2017-04-17T10:13:51.368Z,8.05
2017-04-17T10:14:52.132Z,6.63
2017-04-17T10:15:53.626Z,6.20
2017-04-17T10:16:54.940Z,7.67
2017-04-17T10:17:56.168Z,10.50
2017-04-17T10:18:57.255Z,6.93
2017-04-17T10:19:58.545Z,9.33
2017-04-17T10:20:59.762Z,6.38
2017-04-17T10:22:00.606Z,7.20
2017-04-17T10:23:01.407Z,6.62
2017-04-17T10:24:02.573Z,6.23
2017-04-17T10:25:03.544Z,6.85
2017-04-17T10:26:04.897Z,5.92
2017-04-17T10:27:05.850Z,6.53
2017-04-17T10:28:06.587Z,5.98
2017-04-17T10:29:07.320Z,10.40
2017-04-17T10:30:08.602Z,5.77
2017-04-17T10:31:09.807Z,8.05
2017-04-17T10:32:10.855Z,5.85
2017-04-17T10:33:11.558Z,7.20
2017-04-17T10:34:12.674Z,5.18
2017-04-17T10:35:13.420Z,5.30
2017-04-17T10:36:14.284Z,7.57
2017-04-17T10:37:15.196Z,5.33
2017-04-17T10:38:16.524Z,6.87
2017-04-17T10:39:17.427Z,6.37
2017-04-17T10:40:18.350Z,5.53
2017-04-17T10:41:19.643Z,5.17
2017-04-17T10:42:20.244Z,5.22
2017-04-17T10:43:21.625Z,5.68
2017-04-17T10:44:22.839Z,5.15
2017-04-17T10:45:22.999Z,5.60
2017-04-17T10:46:23.473Z,4.82
2017-04-17T10:47:24.439Z,4.60
2017-04-17T10:48:25.360Z,6.43
2017-04-17T10:49:26.027Z,4.43
2017-04-17T10:50:27.681Z,4.90
2017-04-17T10:51:27.704Z,7.62
2017-04-17T10:52:27.393Z,5.52
2017-04-17T10:53:26.983Z,4.95
2017-04-17T10:54:26.547Z,4.52
2017-04-17T10:55:26.105Z,5.18
2017-04-17T10:56:25.755Z,7.05
2017-04-17T10:57:25.324Z,6.95
2017-04-17T10:58:25.129Z,4.85
2017-04-17T10:59:24.730Z,5.60
2017-04-17T11:00:25.023Z,5.22
2017-04-17T11:01:24.575Z,5.85
2017-04-17T11:02:24.179Z,7.38
2017-04-17T11:03:24.049Z,5.32
2017-04-17T11:04:23.686Z,5.62
2017-04-17T11:05:23.240Z,6.52
2017-04-17T11:06:23.040Z,5.83
2017-04-17T11:07:22.618Z,5.98
2017-04-17T11:08:22.264Z,6.58
2017-04-17T11:09:21.846Z,5.22
2017-04-17T11:10:21.384Z,5.65
2017-04-17T11:11:20.942Z,6.78
2017-04-17T11:12:20.668Z,6.10
2017-04-17T11:13:20.236Z,7.55
2017-04-17T11:14:19.785Z,7.23
2017-04-17T11:15:19.346Z,7.92
2017-04-17T11:16:18.936Z,9.52
2017-04-17T11:17:18.455Z,7.45
2017-04-17T11:18:17.970Z,8.05
2017-04-17T11:19:17.593Z,7.48
2017-04-17T11:20:17.166Z,7.33
2017-04-17T11:21:16.731Z,5.58
2017-04-17T11:22:16.265Z,7.25
2017-04-17T11:23:15.905Z,6.78
2017-04-17T11:24:15.459Z,7.38
2017-04-17T11:25:15.025Z,6.30
2017-04-17T11:26:14.579Z,6.53
2017-04-17T11:27:14.123Z,5.93
2017-04-17T11:28:13.683Z,7.35
2017-04-17T11:29:13.345Z,6.48
2017-04-17T11:30:12.941Z,7.47
2017-04-17T11:31:12.524Z,5.80
2017-04-17T11:32:12.087Z,6.65
2017-04-17T11:33:11.647Z,7.90
2017-04-17T11:34:11.254Z,7.32
2017-04-17T11:35:10.831Z,7.33
2017-04-17T11:36:10.452Z,8.15
2017-04-17T11:37:10.007Z,7.53
2017-04-17T11:38:09.623Z,7.07
2017-04-17T11:39:09.226Z,6.32
2017-04-17T11:40:08.770Z,8.13
2017-04-17T11:41:08.335Z,7.13
2017-04-17T11:42:07.883Z,7.63
2017-04-17T11:43:07.444Z,6.93
2017-04-17T11:44:07.659Z,5.58
2017-04-17T11:45:07.248Z,5.67
2017-04-17T11:46:06.883Z,6.67
2017-04-17T11:47:08.927Z,5.97
2017-04-17T11:48:10.458Z,5.83
2017-04-17T11:49:10.060Z,5.65
2017-04-17T11:50:10.460Z,5.53
2017-04-17T11:51:11.529Z,8.60
2017-04-17T11:52:13.049Z,5.62
2017-04-17T11:53:14.128Z,5.02
2017-04-17T11:54:13.731Z,5.12
2017-04-17T11:55:13.355Z,4.02
2017-04-17T11:56:12.932Z,4.82
2017-04-17T11:57:12.483Z,5.35
2017-04-17T11:58:12.064Z,5.75
2017-04-17T11:59:11.616Z,5.77
2017-04-17T12:00:11.172Z,5.80
2017-04-17T12:01:11.431Z,4.30
2017-04-17T12:02:10.991Z,5.32
2017-04-17T12:03:10.548Z,5.60
2017-04-17T12:04:10.087Z,4.57
2017-04-17T12:05:09.667Z,4.37
2017-04-17T12:06:09.254Z,4.72
2017-04-17T12:07:08.821Z,5.02
2017-04-17T12:08:08.365Z,5.98
2017-04-17T12:09:09.870Z,6.38
2017-04-17T12:10:10.916Z,5.80
2017-04-17T12:11:12.192Z,5.25
2017-04-17T12:12:13.314Z,4.58
2017-04-17T12:13:14.330Z,3.60
2017-04-17T12:14:15.985Z,4.30
2017-04-17T12:15:16.597Z,4.05
2017-04-17T12:16:17.256Z,3.88
2017-04-17T12:17:18.228Z,5.38
2017-04-17T12:18:19.103Z,3.78
2017-04-17T12:19:20.250Z,4.43
2017-04-17T12:20:21.139Z,3.87
2017-04-17T12:21:22.014Z,4.40
2017-04-17T12:22:23.174Z,4.83
2017-04-17T12:23:23.969Z,4.20
2017-04-17T12:24:25.258Z,5.47
2017-04-17T12:25:26.192Z,4.13
2017-04-17T12:26:27.956Z,4.35
2017-04-17T12:27:29.114Z,4.07
2017-04-17T12:28:30.014Z,4.28
2017-04-17T12:29:31.450Z,3.90
2017-04-17T12:30:33.088Z,6.15
2017-04-17T12:31:34.650Z,3.80
2017-04-17T12:32:36.402Z,3.08
2017-04-17T12:33:37.606Z,2.75
2017-04-17T12:34:38.731Z,2.60
2017-04-17T12:35:39.878Z,1.70
2017-04-17T12:36:40.580Z,2.45
2017-04-17T12:37:41.625Z,2.27
2017-04-17T12:38:42.755Z,2.45
2017-04-17T12:39:43.693Z,1.80
2017-04-17T12:40:44.611Z,1.95
2017-04-17T12:41:45.523Z,1.67
2017-04-17T12:42:46.472Z,1.52
2017-04-17T12:43:47.776Z,1.72
2017-04-17T12:44:48.888Z,4.37
2017-04-17T12:45:49.795Z,2.55
2017-04-17T12:46:50.792Z,1.87
2017-04-17T12:47:51.213Z,2.23
2017-04-17T12:48:52.061Z,1.72
2017-04-17T12:49:52.862Z,1.90
2017-04-17T12:50:53.562Z,2.15
2017-04-17T12:51:54.451Z,2.87
2017-04-17T12:52:55.134Z,1.92
2017-04-17T12:53:56.071Z,2.70
2017-04-17T12:54:57.026Z,2.22
2017-04-17T12:55:57.951Z,1.77
2017-04-17T12:56:59.161Z,2.28
2017-04-17T12:58:00.343Z,1.97
2017-04-17T12:59:01.328Z,2.35
2017-04-17T13:00:02.407Z,2.43
2017-04-17T13:01:03.192Z,2.07
2017-04-17T13:02:02.835Z,2.85
2017-04-17T13:03:02.463Z,3.17
2017-04-17T13:04:01.994Z,3.27